This is the latest recevied weather packets stored in our database for station/object 9W2SSS-1. If no packets are shown the sender has not sent any weather packets the latest 10 day(s).
| Time | Temp. | Humidity | Pressure | Rain* | Wind** | Luminosity | Snow |
|---|---|---|---|---|---|---|---|
| 1778030609 | 38.33° C | 44% | 1008.8 hPa | - | - | - | - |
| 1778029409 | 37.22° C | 47% | 1008.7 hPa | - | - | - | - |
| 1778028209 | 36.11° C | 50% | 1008.4 hPa | - | - | - | - |
| 1778027009 | 34.44° C | 55% | 1008.3 hPa | - | - | - | - |
| 1778025809 | 32.22° C | 60% | 1007.8 hPa | - | - | - | - |
| 1778024609 | 30° C | 69% | 1007.7 hPa | - | - | - | - |
| 1778023408 | 28.89° C | 72% | 1007.6 hPa | - | - | - | - |
| 1778022208 | 28.33° C | 74% | 1007.4 hPa | - | - | - | - |
| 1778019812 | 28.33° C | 73% | 1007 hPa | - | - | - | - |
| 1778018617 | 28.33° C | 73% | 1006.8 hPa | - | - | - | - |
| 1778017411 | 28.33° C | 72% | 1006.8 hPa | - | - | - | - |
| 1778016211 | 28.33° C | 72% | 1006.7 hPa | - | - | - | - |
| 1778015011 | 28.33° C | 72% | 1006.7 hPa | - | - | - | - |
| 1778013811 | 28.33° C | 72% | 1007.1 hPa | - | - | - | - |
| 1778012611 | 28.89° C | 71% | 1007.1 hPa | - | - | - | - |
| 1778011411 | 28.89° C | 72% | 1007 hPa | - | - | - | - |
| 1778010210 | 28.89° C | 71% | 1007.3 hPa | - | - | - | - |
| 1778009010 | 28.89° C | 71% | 1007.4 hPa | - | - | - | - |
| 1778007809 | 28.89° C | 70% | 1007.5 hPa | - | - | - | - |
| 1778006609 | 28.89° C | 70% | 1007.6 hPa | - | - | - | - |
| 1778005409 | 28.89° C | 70% | 1007.9 hPa | - | - | - | - |
| 1778004209 | 28.89° C | 68% | 1008 hPa | - | - | - | - |
| 1778003008 | 28.89° C | 67% | 1008.3 hPa | - | - | - | - |
| 1778001807 | 28.33° C | 65% | 1008.5 hPa | - | - | - | - |
| 1778000607 | 28.89° C | 66% | 1008.5 hPa | - | - | - | - |
* Rain since midnight (hover to see other rain measurements)
** Current wind speed in m/s (hover to see current wind gust speed)